createdAt,value
2023-01-13T00:03:31.788Z,99565.44
2023-01-13T00:08:34.542Z,99575.81
2023-01-13T00:13:35.570Z,99567.97
2023-01-13T00:18:37.399Z,99563.06
2023-01-13T00:23:40.603Z,99559.53
2023-01-13T00:28:41.379Z,99579.50
2023-01-13T00:33:42.424Z,99561.44
2023-01-13T00:38:45.099Z,99561.81
2023-01-13T00:43:46.303Z,99569.75
2023-01-13T00:48:48.048Z,99565.25
2023-01-13T00:53:52.365Z,99559.81
2023-01-13T00:58:53.589Z,99564.59
2023-01-13T01:03:55.711Z,99570.16
2023-01-13T01:08:58.368Z,99564.97
2023-01-13T01:14:01.574Z,99557.91
2023-01-13T01:19:03.628Z,99560.56
2023-01-13T01:24:06.394Z,99565.16
2023-01-13T01:29:07.207Z,99563.53
2023-01-13T01:34:08.002Z,99572.16
2023-01-13T01:39:11.668Z,99566.97
2023-01-13T01:44:45.819Z,99558.84
2023-01-13T01:49:47.405Z,99567.88
2023-01-13T01:54:55.442Z,99553.16
2023-01-13T01:59:57.682Z,99539.84
2023-01-13T02:04:59.179Z,99542.06
2023-01-13T02:10:07.346Z,99530.56
2023-01-13T02:15:11.114Z,99531.53
2023-01-13T02:20:34.996Z,99524.97
2023-01-13T02:25:49.821Z,99517.91
2023-01-13T02:31:15.207Z,99507.75
2023-01-13T02:36:24.205Z,99497.63
2023-01-13T02:41:48.006Z,99486.41
2023-01-13T02:46:58.125Z,99493.03
2023-01-13T02:52:05.043Z,99485.31
2023-01-13T02:57:08.139Z,99482.63
2023-01-13T03:02:15.171Z,99482.53
2023-01-13T03:07:40.591Z,99486.84
2023-01-13T03:12:51.294Z,99490.25
2023-01-13T03:17:59.047Z,99489.38
2023-01-13T03:23:07.631Z,99503.94
2023-01-13T03:28:13.111Z,99494.69
2023-01-13T03:33:18.558Z,99482.41
2023-01-13T03:38:22.846Z,99483.22
2023-01-13T03:43:47.719Z,99478.59
2023-01-13T03:48:55.633Z,99486.09
2023-01-13T03:53:59.225Z,99485.16
2023-01-13T03:59:05.032Z,99477.97
2023-01-13T04:04:10.580Z,99481.28
2023-01-13T04:09:17.661Z,99477.31
2023-01-13T04:14:21.658Z,99484.03
2023-01-13T04:19:23.693Z,99476.97
2023-01-13T04:24:24.386Z,99477.19
2023-01-13T04:29:25.050Z,99478.16
2023-01-13T04:34:28.484Z,99472.88
2023-01-13T04:39:29.276Z,99476.22
2023-01-13T04:44:30.524Z,99471.91
2023-01-13T04:49:33.238Z,99481.59
2023-01-13T04:54:33.923Z,99470.16
2023-01-13T04:59:34.773Z,99469.91
2023-01-13T05:04:37.220Z,99479.47
2023-01-13T05:09:37.905Z,99474.66
2023-01-13T05:14:56.137Z,99476.41
2023-01-13T05:19:58.175Z,99481.16
2023-01-13T05:25:16.272Z,99483.91
2023-01-13T05:30:18.277Z,99472.44
2023-01-13T05:35:20.522Z,99488.78
2023-01-13T05:40:38.728Z,99488.63
2023-01-13T05:45:39.361Z,99485.97
2023-01-13T05:50:41.340Z,99481.63
2023-01-13T05:55:42.783Z,99474.19
2023-01-13T06:00:43.532Z,99486.25
2023-01-13T06:05:45.522Z,99495.16
2023-01-13T06:10:46.177Z,99478.75
2023-01-13T06:15:46.957Z,99487.50
2023-01-13T06:20:49.564Z,99489.97
2023-01-13T06:25:57.483Z,99479.09
2023-01-13T06:31:01.704Z,99482.47
2023-01-13T06:36:08.557Z,99482.75
2023-01-13T06:41:09.665Z,99491.56
2023-01-13T06:46:10.477Z,99489.31
2023-01-13T06:51:13.869Z,99491.81
2023-01-13T06:56:14.530Z,99486.22
2023-01-13T07:01:15.373Z,99493.97
2023-01-13T07:06:17.432Z,99496.69
2023-01-13T07:11:18.205Z,99495.25
2023-01-13T07:16:18.889Z,99492.56
2023-01-13T07:21:21.222Z,99500.44
2023-01-13T07:26:21.957Z,99495.09
2023-01-13T07:31:23.154Z,99496.03
2023-01-13T07:36:25.212Z,99492.56
2023-01-13T07:41:43.446Z,99481.28
2023-01-13T07:46:44.101Z,99483.78
2023-01-13T07:51:46.087Z,99489.91
2023-01-13T07:56:46.750Z,99496.88
2023-01-13T08:01:47.583Z,99492.44
2023-01-13T08:06:49.709Z,99492.50
2023-01-13T08:12:10.378Z,99490.38
2023-01-13T08:17:11.558Z,99484.25
2023-01-13T08:22:13.554Z,99486.06
2023-01-13T08:27:14.272Z,99487.69
2023-01-13T08:32:14.915Z,99481.63
2023-01-13T08:37:16.948Z,99484.22
2023-01-13T08:42:17.647Z,99484.69
2023-01-13T08:47:18.343Z,99486.44
2023-01-13T08:52:20.514Z,99493.59
2023-01-13T08:57:21.328Z,99477.97
2023-01-13T09:02:26.879Z,99482.13
2023-01-13T09:07:28.920Z,99486.81
2023-01-13T09:12:47.069Z,99501.19
2023-01-13T09:17:47.983Z,99506.72
2023-01-13T09:22:50.050Z,99514.41
2023-01-13T09:27:50.710Z,99616.22
2023-01-13T09:33:11.383Z,99656.00
2023-01-13T09:38:14.557Z,99650.81
2023-01-13T09:43:38.066Z,99657.69
2023-01-13T09:48:52.091Z,99659.03
2023-01-13T09:53:59.880Z,99644.44
2023-01-13T09:59:00.571Z,99666.75
2023-01-13T10:04:09.200Z,99677.88
2023-01-13T10:09:17.743Z,99664.81
2023-01-13T10:14:21.464Z,99662.78
2023-01-13T10:19:27.613Z,99659.97
2023-01-13T10:24:50.712Z,99671.09
2023-01-13T10:29:51.446Z,99649.41
2023-01-13T10:34:56.881Z,99645.63
2023-01-13T10:40:02.777Z,99618.84
2023-01-13T10:45:03.903Z,99611.13
2023-01-13T10:50:22.344Z,99607.78
2023-01-13T10:55:28.759Z,99598.91
2023-01-13T11:00:32.222Z,99596.72
2023-01-13T11:05:32.901Z,99588.25
2023-01-13T11:10:35.241Z,99589.84
2023-01-13T11:15:42.035Z,99610.41
2023-01-13T11:20:45.116Z,99618.59
2023-01-13T11:25:53.173Z,99628.75
2023-01-13T11:30:57.785Z,99628.94
2023-01-13T11:36:07.549Z,99622.06
2023-01-13T11:41:16.545Z,99630.25
2023-01-13T11:46:17.278Z,99629.94
2023-01-13T11:51:31.865Z,99635.91
2023-01-13T11:56:53.661Z,99632.78
2023-01-13T12:02:22.287Z,99627.50
2023-01-13T12:07:37.227Z,99585.03
2023-01-13T12:12:52.118Z,99613.38
2023-01-13T12:18:06.587Z,99607.81
2023-01-13T12:23:14.314Z,99601.25
2023-01-13T12:28:21.103Z,99615.69
2023-01-13T12:33:32.776Z,99605.25
2023-01-13T12:38:37.289Z,99594.69
2023-01-13T12:44:04.068Z,99597.88
2023-01-13T12:49:17.915Z,99605.88
2023-01-13T12:55:10.880Z,99608.81
2023-01-13T13:00:17.834Z,99610.34
2023-01-13T13:05:40.611Z,99625.59
2023-01-13T13:10:46.203Z,99617.91
2023-01-13T13:15:49.315Z,99620.84
2023-01-13T13:20:59.146Z,99629.34
2023-01-13T13:26:04.732Z,99623.09
2023-01-13T13:31:20.113Z,99631.69
2023-01-13T13:36:45.683Z,99643.19
2023-01-13T13:42:06.692Z,99626.84
2023-01-13T13:47:15.390Z,99635.34
2023-01-13T13:52:21.742Z,99637.16
2023-01-13T13:58:55.507Z,99632.56
2023-01-13T14:04:11.529Z,99631.50
2023-01-13T14:09:19.574Z,99624.59
2023-01-13T14:14:21.891Z,99625.47
2023-01-13T14:19:32.707Z,99626.25
2023-01-13T14:24:33.874Z,99638.81
2023-01-13T14:29:36.161Z,99641.00
2023-01-13T14:34:37.793Z,99651.22
2023-01-13T14:39:41.552Z,99655.78
2023-01-13T14:44:46.874Z,99664.50
2023-01-13T14:49:58.773Z,99670.59
2023-01-13T14:55:22.500Z,99687.06
2023-01-13T15:00:26.861Z,99693.16
2023-01-13T15:05:49.548Z,99692.88
2023-01-13T15:10:52.708Z,99690.19
2023-01-13T15:15:56.774Z,99722.09
2023-01-13T15:20:57.510Z,99750.78
2023-01-13T15:26:01.245Z,99776.00
2023-01-13T15:31:03.925Z,99764.28
2023-01-13T15:36:07.693Z,99772.72
2023-01-13T15:41:10.462Z,99775.66
2023-01-13T15:46:33.405Z,99768.28
2023-01-13T15:51:34.214Z,99773.53
2023-01-13T15:56:37.261Z,99762.94
2023-01-13T16:01:39.442Z,99783.88
2023-01-13T16:06:40.250Z,99788.31
2023-01-13T16:11:40.967Z,99778.16
2023-01-13T16:16:43.022Z,99779.91
2023-01-13T16:21:45.306Z,99779.94
2023-01-13T16:26:46.003Z,99777.34
2023-01-13T16:31:48.037Z,99780.00
2023-01-13T16:36:48.740Z,99796.63
2023-01-13T16:41:49.514Z,99799.19
2023-01-13T16:46:51.536Z,99801.25
2023-01-13T16:51:52.247Z,99807.44
2023-01-13T16:56:52.941Z,99822.25
2023-01-13T17:01:55.159Z,99815.34
2023-01-13T17:07:00.232Z,99828.34
2023-01-13T17:12:01.408Z,99841.44
2023-01-13T17:17:03.480Z,99849.22
2023-01-13T17:22:04.168Z,99857.84
2023-01-13T17:27:05.005Z,99863.91
2023-01-13T17:32:07.197Z,99857.53
2023-01-13T17:37:07.894Z,99857.09
2023-01-13T17:42:08.589Z,99856.22
2023-01-13T17:47:11.018Z,99868.34
2023-01-13T17:52:11.727Z,99878.41
2023-01-13T17:57:12.426Z,99887.66
2023-01-13T18:02:15.038Z,99896.84
2023-01-13T18:07:15.810Z,99904.38
2023-01-13T18:12:16.591Z,99901.50
2023-01-13T18:17:19.604Z,99925.53
2023-01-13T18:22:37.980Z,99926.38
2023-01-13T18:27:41.338Z,99935.47
2023-01-13T18:32:43.389Z,99925.16
2023-01-13T18:37:44.373Z,99924.19
2023-01-13T18:42:55.231Z,99932.84
2023-01-13T18:47:59.533Z,99932.66
2023-01-13T18:53:00.281Z,99923.91
2023-01-13T18:58:01.054Z,99922.94
2023-01-13T19:08:07.176Z,99942.66
2023-01-13T19:13:07.891Z,99935.53
2023-01-13T19:18:14.275Z,99939.81
2023-01-13T19:23:14.923Z,99937.34
2023-01-13T19:28:15.639Z,99943.31
2023-01-13T19:33:17.679Z,99958.91
2023-01-13T19:38:18.386Z,99972.53
2023-01-13T19:43:36.826Z,99982.09
2023-01-13T19:48:39.435Z,99985.50
2023-01-13T19:53:40.110Z,99986.50
2023-01-13T19:58:42.012Z,99990.94
2023-01-13T20:03:45.936Z,99994.56
2023-01-13T20:08:48.078Z,99996.41
2023-01-13T20:13:49.074Z,100017.03
2023-01-13T20:18:51.792Z,100024.75
2023-01-13T20:23:53.956Z,100028.22
2023-01-13T20:28:54.640Z,100029.91
2023-01-13T20:33:56.662Z,100042.13
2023-01-13T20:38:59.094Z,100044.63
2023-01-13T20:43:59.788Z,100057.69
2023-01-13T20:49:01.868Z,100060.25
2023-01-13T20:54:02.572Z,100049.94
2023-01-13T20:59:03.328Z,100062.19
2023-01-13T21:04:06.952Z,100067.41
2023-01-13T21:09:07.797Z,100074.34
2023-01-13T21:14:32.715Z,100069.94
2023-01-13T21:19:35.060Z,100072.47
2023-01-13T21:24:35.722Z,100087.97
2023-01-13T21:29:36.404Z,100096.78
2023-01-13T21:34:38.437Z,100096.63
2023-01-13T21:39:39.185Z,100091.38
2023-01-13T21:44:57.484Z,100113.03
2023-01-13T21:49:59.562Z,100129.44
2023-01-13T21:55:20.400Z,100133.63
2023-01-13T22:00:23.387Z,100133.69
2023-01-13T22:05:26.529Z,100131.09
2023-01-13T22:10:29.929Z,100137.38
2023-01-13T22:15:31.700Z,100131.44
2023-01-13T22:20:33.786Z,100143.53
2023-01-13T22:25:34.469Z,100138.34
2023-01-13T22:30:35.974Z,100148.13
2023-01-13T22:35:38.485Z,100147.28
2023-01-13T22:40:39.147Z,100161.09
2023-01-13T22:45:39.892Z,100159.41
2023-01-13T22:50:42.065Z,100161.97
2023-01-13T22:55:44.399Z,100155.94
2023-01-13T23:00:46.793Z,100168.03
2023-01-13T23:05:48.934Z,100179.16
2023-01-13T23:10:49.636Z,100179.03
2023-01-13T23:15:50.704Z,100185.81
2023-01-13T23:20:52.846Z,100195.38
2023-01-13T23:25:55.408Z,100204.06
2023-01-13T23:30:56.527Z,100182.69
2023-01-13T23:36:00.286Z,100183.75
2023-01-13T23:41:01.289Z,100203.69
2023-01-13T23:46:03.281Z,100208.75
2023-01-13T23:51:07.484Z,100216.59
2023-01-13T23:56:11.843Z,100208.81
